createdAt,value
2023-05-20T00:01:05.078Z,1.90
2023-05-20T00:03:31.955Z,2.30
2023-05-20T00:05:58.747Z,2.23
2023-05-20T00:08:25.600Z,1.97
2023-05-20T00:10:52.358Z,2.17
2023-05-20T00:13:19.162Z,2.13
2023-05-20T00:15:45.952Z,2.03
2023-05-20T00:18:12.774Z,2.20
2023-05-20T00:20:39.593Z,2.40
2023-05-20T00:23:06.393Z,2.17
2023-05-20T00:25:33.354Z,1.93
2023-05-20T00:28:00.384Z,2.10
2023-05-20T00:30:27.256Z,2.20
2023-05-20T00:32:54.066Z,2.07
2023-05-20T00:35:20.869Z,2.10
2023-05-20T00:37:47.730Z,2.50
2023-05-20T00:40:15.700Z,2.20
2023-05-20T00:42:43.624Z,2.20
2023-05-20T00:45:10.879Z,2.23
2023-05-20T00:47:38.769Z,2.23
2023-05-20T00:50:06.145Z,2.20
2023-05-20T00:52:33.214Z,2.30
2023-05-20T00:55:00.277Z,2.50
2023-05-20T00:57:27.764Z,2.30
2023-05-20T00:59:54.771Z,2.30
2023-05-20T01:02:22.013Z,2.33
2023-05-20T01:04:48.941Z,2.27
2023-05-20T01:07:17.093Z,2.20
2023-05-20T01:09:44.250Z,1.90
2023-05-20T01:12:32.367Z,2.57
2023-05-20T01:15:02.172Z,2.17
2023-05-20T01:17:33.312Z,2.20
2023-05-20T01:20:01.793Z,2.10
2023-05-20T01:22:29.516Z,1.80
2023-05-20T01:24:57.308Z,2.00
2023-05-20T01:27:24.520Z,2.20
2023-05-20T01:29:51.985Z,1.90
2023-05-20T01:32:40.753Z,1.90
2023-05-20T01:35:08.536Z,2.13
2023-05-20T01:37:37.424Z,2.00
2023-05-20T01:40:05.655Z,2.00
2023-05-20T01:42:32.753Z,2.00
2023-05-20T01:44:59.803Z,2.27
2023-05-20T01:47:26.786Z,2.20
2023-05-20T01:49:54.494Z,2.13
2023-05-20T01:52:22.237Z,2.20
2023-05-20T01:54:51.448Z,2.23
2023-05-20T01:57:22.823Z,2.10
2023-05-20T01:59:50.042Z,2.87
2023-05-20T02:02:17.320Z,2.10
2023-05-20T02:04:48.415Z,2.00
2023-05-20T02:07:15.933Z,2.00
2023-05-20T02:09:42.836Z,2.07
2023-05-20T02:12:10.281Z,2.17
2023-05-20T02:14:37.033Z,2.20
2023-05-20T02:17:03.917Z,2.40
2023-05-20T02:19:30.721Z,2.50
2023-05-20T02:21:57.636Z,2.30
2023-05-20T02:24:24.410Z,2.17
2023-05-20T02:26:51.493Z,2.40
2023-05-20T02:29:18.262Z,2.20
2023-05-20T02:31:45.039Z,2.33
2023-05-20T02:34:11.773Z,2.07
2023-05-20T02:36:38.555Z,2.20
2023-05-20T02:39:05.397Z,1.90
2023-05-20T02:41:32.115Z,2.10
2023-05-20T02:43:58.957Z,2.30
2023-05-20T02:46:25.974Z,2.53
2023-05-20T02:48:52.810Z,2.03
2023-05-20T02:51:19.593Z,2.10
2023-05-20T02:53:46.631Z,2.30
2023-05-20T02:56:13.477Z,2.50
2023-05-20T02:58:40.284Z,2.20
2023-05-20T03:01:07.313Z,2.10
2023-05-20T03:03:34.071Z,2.40
2023-05-20T03:06:00.829Z,2.40
2023-05-20T03:08:27.581Z,2.40
2023-05-20T03:10:54.354Z,2.17
2023-05-20T03:13:21.113Z,2.37
2023-05-20T03:15:47.880Z,2.50
2023-05-20T03:18:14.638Z,2.37
2023-05-20T03:20:42.389Z,2.63
2023-05-20T03:23:09.854Z,2.50
2023-05-20T03:25:37.439Z,2.33
2023-05-20T03:28:04.753Z,2.43
2023-05-20T03:30:31.721Z,2.40
2023-05-20T03:32:59.116Z,2.50
2023-05-20T03:35:26.381Z,2.20
2023-05-20T03:37:53.572Z,2.10
2023-05-20T03:40:23.702Z,2.30
2023-05-20T03:42:52.288Z,2.50
2023-05-20T03:45:19.240Z,1.90
2023-05-20T03:47:46.024Z,2.30
2023-05-20T03:50:12.854Z,2.17
2023-05-20T03:52:41.135Z,2.37
2023-05-20T03:55:08.345Z,2.20
2023-05-20T03:57:36.736Z,2.20
2023-05-20T04:00:10.400Z,2.33
2023-05-20T04:02:38.774Z,2.43
2023-05-20T04:05:08.805Z,2.40
2023-05-20T04:07:37.017Z,2.40
2023-05-20T04:10:04.625Z,2.60
2023-05-20T04:12:32.570Z,2.67
2023-05-20T04:15:01.544Z,2.40
2023-05-20T04:17:31.607Z,2.67
2023-05-20T04:20:00.127Z,2.50
2023-05-20T04:22:30.060Z,2.53
2023-05-20T04:24:56.817Z,2.40
2023-05-20T04:27:23.978Z,2.90
2023-05-20T04:29:50.682Z,2.60
2023-05-20T04:32:19.264Z,2.63
2023-05-20T04:34:46.952Z,2.63
2023-05-20T04:37:14.203Z,2.70
2023-05-20T04:39:41.196Z,2.40
2023-05-20T04:42:07.960Z,2.80
2023-05-20T04:44:34.754Z,2.47
2023-05-20T04:47:01.726Z,2.40
2023-05-20T04:49:30.088Z,3.00
2023-05-20T04:51:56.842Z,2.70
2023-05-20T04:54:23.667Z,2.73
2023-05-20T04:56:51.209Z,2.87
2023-05-20T04:59:18.081Z,2.33
2023-05-20T05:01:44.921Z,2.60
2023-05-20T05:04:11.866Z,2.37
2023-05-20T05:06:38.719Z,2.53
2023-05-20T05:09:05.634Z,2.70
2023-05-20T05:11:32.343Z,2.40
2023-05-20T05:13:59.144Z,2.57
2023-05-20T05:16:26.155Z,2.47
2023-05-20T05:18:53.092Z,2.47
2023-05-20T05:21:20.116Z,2.70
2023-05-20T05:23:46.981Z,2.43
2023-05-20T05:26:13.824Z,2.40
2023-05-20T05:28:43.007Z,2.40
2023-05-20T05:31:09.926Z,3.00
2023-05-20T05:33:36.777Z,2.33
2023-05-20T05:36:05.205Z,2.60
2023-05-20T05:38:32.311Z,2.50
2023-05-20T05:40:59.041Z,2.87
2023-05-20T05:43:25.732Z,2.80
2023-05-20T05:45:52.470Z,2.70
2023-05-20T05:48:19.217Z,2.57
2023-05-20T05:50:46.535Z,2.70
2023-05-20T05:53:13.323Z,2.97
2023-05-20T05:55:40.242Z,2.80
2023-05-20T05:58:06.967Z,2.67
2023-05-20T06:00:33.738Z,2.67
2023-05-20T06:03:00.568Z,2.60
2023-05-20T06:05:29.343Z,2.60
2023-05-20T06:07:56.740Z,2.70
2023-05-20T06:10:23.626Z,2.47
2023-05-20T06:12:50.414Z,2.90
2023-05-20T06:15:17.158Z,3.10
2023-05-20T06:17:44.433Z,2.90
2023-05-20T06:20:11.647Z,3.00
2023-05-20T06:22:38.473Z,2.80
2023-05-20T06:25:06.509Z,2.70
2023-05-20T06:27:33.521Z,2.93
2023-05-20T06:30:00.366Z,2.57
2023-05-20T06:32:27.897Z,2.70
2023-05-20T06:34:54.685Z,2.87
2023-05-20T06:37:24.607Z,3.17
2023-05-20T06:39:54.118Z,2.83
2023-05-20T06:42:21.614Z,2.73
2023-05-20T06:44:48.459Z,2.63
2023-05-20T06:47:17.105Z,2.70
2023-05-20T06:49:47.318Z,2.90
2023-05-20T06:52:14.711Z,2.80
2023-05-20T06:54:41.912Z,2.80
2023-05-20T06:57:09.205Z,2.90
2023-05-20T06:59:36.724Z,3.03
2023-05-20T07:02:04.217Z,3.00
2023-05-20T07:04:31.096Z,3.47
2023-05-20T07:06:57.914Z,3.33
2023-05-20T07:09:24.790Z,3.17
2023-05-20T07:11:51.657Z,3.70
2023-05-20T07:14:18.435Z,3.10
2023-05-20T07:16:45.246Z,3.10
2023-05-20T07:19:12.032Z,3.03
2023-05-20T07:21:38.920Z,2.87
2023-05-20T07:24:05.930Z,2.97
2023-05-20T07:26:36.505Z,3.27
2023-05-20T07:29:07.170Z,3.17
2023-05-20T07:31:34.124Z,3.00
2023-05-20T07:34:01.001Z,2.87
2023-05-20T07:36:28.575Z,3.30
2023-05-20T07:39:02.446Z,3.10
2023-05-20T07:41:31.264Z,3.10
2023-05-20T07:43:58.091Z,3.80
2023-05-20T07:46:24.864Z,3.80
2023-05-20T07:48:51.741Z,3.67
2023-05-20T07:51:19.180Z,3.50
2023-05-20T07:53:46.071Z,3.20
2023-05-20T07:56:12.854Z,3.60
2023-05-20T07:58:41.814Z,3.53
2023-05-20T08:01:09.610Z,3.67
2023-05-20T08:03:37.120Z,3.60
2023-05-20T08:06:04.095Z,3.83
2023-05-20T08:08:31.015Z,4.00
2023-05-20T08:10:57.806Z,3.60
2023-05-20T08:13:30.742Z,3.77
2023-05-20T08:15:57.500Z,3.60
2023-05-20T08:18:24.332Z,3.67
2023-05-20T08:20:51.701Z,4.03
2023-05-20T08:23:18.617Z,4.20
2023-05-20T08:25:47.134Z,3.97
2023-05-20T08:28:14.174Z,3.60
2023-05-20T08:30:41.720Z,4.20
2023-05-20T08:33:08.689Z,3.97
2023-05-20T08:35:36.148Z,4.00
2023-05-20T08:38:03.089Z,3.90
2023-05-20T08:40:30.028Z,3.93
2023-05-20T08:42:58.069Z,3.67
2023-05-20T08:45:28.122Z,4.07
2023-05-20T08:47:55.176Z,4.10
2023-05-20T08:50:22.396Z,4.30
2023-05-20T08:52:49.451Z,3.87
2023-05-20T08:55:23.188Z,4.00
2023-05-20T08:57:56.377Z,3.93
2023-05-20T09:00:29.085Z,4.10
2023-05-20T09:02:58.199Z,3.77
2023-05-20T09:05:27.703Z,3.70
2023-05-20T09:08:05.515Z,3.77
2023-05-20T09:10:33.544Z,4.10
2023-05-20T09:13:07.647Z,4.17
2023-05-20T09:15:35.560Z,4.17
2023-05-20T09:18:04.105Z,4.40
2023-05-20T09:20:32.727Z,4.27
2023-05-20T09:23:00.995Z,3.93
2023-05-20T09:25:28.597Z,3.93
2023-05-20T09:27:56.034Z,4.47
2023-05-20T09:30:23.891Z,4.00
2023-05-20T09:32:57.625Z,4.10
2023-05-20T09:35:26.449Z,4.33
2023-05-20T09:37:55.313Z,4.50
2023-05-20T09:40:31.274Z,4.83
2023-05-20T09:43:11.650Z,4.37
2023-05-20T09:45:38.991Z,4.90
2023-05-20T09:48:06.035Z,4.07
2023-05-20T09:50:33.014Z,4.60
2023-05-20T09:53:03.099Z,4.27
2023-05-20T09:55:30.437Z,5.00
2023-05-20T09:57:57.312Z,4.30
2023-05-20T10:00:24.140Z,4.23
2023-05-20T10:02:52.373Z,5.00
2023-05-20T10:05:25.067Z,4.60
2023-05-20T10:08:10.158Z,4.70
2023-05-20T10:11:01.942Z,4.67
2023-05-20T10:13:53.562Z,4.87
2023-05-20T10:16:44.005Z,5.00
2023-05-20T10:19:30.370Z,4.57
2023-05-20T10:22:07.588Z,4.80
2023-05-20T10:24:38.330Z,6.23
2023-05-20T10:27:08.076Z,4.53
2023-05-20T10:29:46.015Z,5.13
2023-05-20T10:32:23.304Z,5.13
2023-05-20T10:34:51.119Z,5.20
2023-05-20T10:37:28.340Z,5.13
2023-05-20T10:40:12.401Z,5.50
2023-05-20T10:42:46.290Z,5.10
2023-05-20T10:45:13.217Z,4.60
2023-05-20T10:47:56.198Z,4.80
2023-05-20T10:50:29.680Z,4.70
2023-05-20T10:53:04.562Z,4.60
2023-05-20T10:55:37.525Z,4.67
2023-05-20T10:58:05.193Z,4.90
2023-05-20T11:00:34.913Z,4.50
2023-05-20T11:03:01.979Z,4.40
2023-05-20T11:05:29.999Z,4.37
2023-05-20T11:08:08.019Z,4.87
2023-05-20T11:10:38.026Z,4.90
2023-05-20T11:13:05.401Z,4.40
2023-05-20T11:15:33.617Z,4.40
2023-05-20T11:18:02.734Z,4.50
2023-05-20T11:20:31.192Z,4.40
2023-05-20T11:22:57.954Z,4.50
2023-05-20T11:25:24.843Z,4.40
2023-05-20T11:27:52.209Z,4.30
2023-05-20T11:30:20.074Z,4.60
2023-05-20T11:33:00.435Z,4.23
2023-05-20T11:35:30.371Z,4.50
2023-05-20T11:38:09.282Z,4.47
2023-05-20T11:40:49.819Z,4.70
2023-05-20T11:43:20.582Z,4.50
2023-05-20T11:45:53.095Z,4.70
2023-05-20T11:48:20.157Z,4.57
2023-05-20T11:50:48.454Z,4.60
2023-05-20T11:53:18.094Z,4.40
2023-05-20T11:55:53.466Z,4.50
2023-05-20T11:58:25.330Z,4.63
2023-05-20T12:00:57.172Z,4.00
2023-05-20T12:03:29.124Z,4.00
2023-05-20T12:05:55.979Z,4.50
2023-05-20T12:08:27.861Z,4.37
2023-05-20T12:10:54.723Z,4.90
2023-05-20T12:13:21.593Z,4.40
2023-05-20T12:15:48.370Z,4.40
2023-05-20T12:18:15.163Z,4.33
2023-05-20T12:20:43.103Z,4.60
2023-05-20T12:23:09.840Z,4.47
2023-05-20T12:25:36.856Z,4.43
2023-05-20T12:28:04.018Z,4.40
2023-05-20T12:30:31.228Z,4.50
2023-05-20T12:32:58.086Z,4.67
2023-05-20T12:35:26.784Z,4.20
2023-05-20T12:37:53.856Z,4.03
2023-05-20T12:40:20.944Z,3.93
2023-05-20T12:42:47.892Z,4.27
2023-05-20T12:45:14.713Z,4.30
2023-05-20T12:47:41.516Z,4.10
2023-05-20T12:50:08.478Z,3.40
2023-05-20T12:52:35.243Z,3.93
2023-05-20T12:55:02.128Z,3.90
2023-05-20T12:57:28.966Z,3.83
2023-05-20T12:59:55.921Z,3.70
2023-05-20T13:02:22.904Z,4.30
2023-05-20T13:04:49.774Z,3.73
2023-05-20T13:07:16.700Z,3.90
2023-05-20T13:09:44.788Z,4.20
2023-05-20T13:12:11.516Z,3.80
2023-05-20T13:14:38.298Z,3.87
2023-05-20T13:17:05.383Z,4.03
2023-05-20T13:19:32.336Z,3.50
2023-05-20T13:21:59.242Z,3.53
2023-05-20T13:24:26.175Z,3.10
2023-05-20T13:26:52.951Z,3.63
2023-05-20T13:29:19.764Z,3.60
2023-05-20T13:31:47.445Z,3.30
2023-05-20T13:34:14.398Z,3.67
2023-05-20T13:36:41.185Z,3.10
2023-05-20T13:39:08.034Z,3.53
2023-05-20T13:41:34.905Z,3.40
2023-05-20T13:44:01.760Z,3.50
2023-05-20T13:46:28.841Z,3.93
2023-05-20T13:48:55.660Z,3.60
2023-05-20T13:51:22.827Z,3.50
2023-05-20T13:53:49.644Z,3.83
2023-05-20T13:56:16.594Z,3.67
2023-05-20T13:58:43.434Z,3.43
2023-05-20T14:01:12.743Z,3.80
2023-05-20T14:03:41.122Z,3.50
2023-05-20T14:06:08.254Z,3.20
2023-05-20T14:08:35.052Z,3.90
2023-05-20T14:11:01.943Z,3.53
2023-05-20T14:13:28.675Z,3.40
2023-05-20T14:15:55.849Z,3.43
2023-05-20T14:18:22.662Z,3.23
2023-05-20T14:20:49.495Z,3.27
2023-05-20T14:23:16.314Z,2.93
2023-05-20T14:25:43.078Z,3.03
2023-05-20T14:28:09.826Z,3.20
2023-05-20T14:30:36.834Z,3.03
2023-05-20T14:33:03.883Z,3.10
2023-05-20T14:35:30.754Z,3.07
2023-05-20T14:37:57.563Z,2.93
2023-05-20T14:40:24.552Z,2.67
2023-05-20T14:42:52.452Z,2.93
2023-05-20T14:45:20.010Z,2.80
2023-05-20T14:47:46.998Z,2.80
2023-05-20T14:50:13.873Z,2.67
2023-05-20T14:52:40.735Z,2.70
2023-05-20T14:55:08.497Z,2.63
2023-05-20T14:57:35.307Z,2.83
2023-05-20T15:00:02.165Z,2.73
2023-05-20T15:02:29.061Z,2.67
2023-05-20T15:04:55.806Z,2.80
2023-05-20T15:07:22.631Z,2.87
2023-05-20T15:09:52.525Z,2.67
2023-05-20T15:12:19.370Z,3.00
2023-05-20T15:14:46.146Z,3.20
2023-05-20T15:17:13.150Z,3.13
2023-05-20T15:19:41.893Z,3.10
2023-05-20T15:22:08.761Z,2.80
2023-05-20T15:24:35.551Z,2.97
2023-05-20T15:27:02.371Z,2.80
2023-05-20T15:29:29.177Z,2.63
2023-05-20T15:31:56.012Z,2.83
2023-05-20T15:34:28.738Z,3.07
2023-05-20T15:36:55.598Z,2.93
2023-05-20T15:39:22.544Z,3.47
2023-05-20T15:41:50.254Z,3.37
2023-05-20T15:44:17.018Z,2.77
2023-05-20T15:46:44.464Z,2.80
2023-05-20T15:49:12.754Z,3.20
2023-05-20T15:51:40.985Z,3.10
2023-05-20T15:54:08.310Z,3.13
2023-05-20T15:56:35.034Z,3.20
2023-05-20T15:59:01.867Z,3.37
2023-05-20T16:01:28.800Z,3.17
2023-05-20T16:03:57.974Z,3.13
2023-05-20T16:06:27.791Z,3.30
2023-05-20T16:08:57.414Z,3.30
2023-05-20T16:11:24.180Z,3.50
2023-05-20T16:13:51.054Z,3.23
2023-05-20T16:16:18.021Z,3.27
2023-05-20T16:18:44.981Z,3.47
2023-05-20T16:21:11.975Z,3.20
2023-05-20T16:23:38.841Z,3.20
2023-05-20T16:26:05.834Z,3.03
2023-05-20T16:28:32.665Z,3.50
2023-05-20T16:30:59.508Z,3.37
2023-05-20T16:33:26.804Z,2.90
2023-05-20T16:35:53.785Z,3.30
2023-05-20T16:38:20.687Z,3.50
2023-05-20T16:40:47.477Z,3.40
2023-05-20T16:43:15.676Z,3.37
2023-05-20T16:45:42.466Z,3.57
2023-05-20T16:48:09.323Z,3.20
2023-05-20T16:50:36.405Z,3.10
2023-05-20T16:53:03.270Z,3.53
2023-05-20T16:55:30.114Z,3.37
2023-05-20T16:57:56.948Z,3.27
2023-05-20T17:00:23.747Z,3.20
2023-05-20T17:02:50.534Z,3.60
2023-05-20T17:05:17.496Z,3.67
2023-05-20T17:07:44.338Z,3.40
2023-05-20T17:10:11.675Z,3.57
2023-05-20T17:12:38.499Z,3.63
2023-05-20T17:15:06.350Z,3.60
2023-05-20T17:17:33.189Z,3.30
2023-05-20T17:20:00.041Z,3.30
2023-05-20T17:22:27.045Z,3.53
2023-05-20T17:24:53.841Z,3.70
2023-05-20T17:27:20.651Z,3.27
2023-05-20T17:29:48.778Z,3.30
2023-05-20T17:32:18.550Z,3.60
2023-05-20T17:34:45.313Z,3.27
2023-05-20T17:37:12.192Z,3.60
2023-05-20T17:39:39.074Z,3.10
2023-05-20T17:42:06.080Z,3.37
2023-05-20T17:44:32.859Z,3.53
2023-05-20T17:46:59.683Z,3.20
2023-05-20T17:49:26.587Z,3.07
2023-05-20T17:51:58.367Z,3.30
2023-05-20T17:54:25.257Z,3.27
2023-05-20T17:56:57.047Z,3.33
2023-05-20T17:59:23.870Z,2.93
2023-05-20T18:01:51.321Z,3.03
2023-05-20T18:04:18.059Z,2.90
2023-05-20T18:06:45.195Z,2.80
2023-05-20T18:09:12.326Z,3.10
2023-05-20T18:11:40.126Z,3.60
2023-05-20T18:14:08.245Z,3.63
2023-05-20T18:16:35.323Z,3.40
2023-05-20T18:19:03.315Z,3.43
2023-05-20T18:21:30.130Z,3.57
2023-05-20T18:24:01.949Z,3.23
2023-05-20T18:26:42.989Z,3.73
2023-05-20T18:29:09.916Z,3.87
2023-05-20T18:31:37.242Z,3.40
2023-05-20T18:34:04.189Z,3.40
2023-05-20T18:36:31.769Z,3.47
2023-05-20T18:38:58.588Z,3.33
2023-05-20T18:41:35.362Z,3.77
2023-05-20T18:44:12.529Z,3.40
2023-05-20T18:46:39.309Z,3.37
2023-05-20T18:49:06.414Z,3.40
2023-05-20T18:51:33.924Z,3.73
2023-05-20T18:54:00.693Z,3.30
2023-05-20T18:56:27.669Z,3.60
2023-05-20T18:58:54.428Z,3.00
2023-05-20T19:01:24.210Z,3.60
2023-05-20T19:03:50.996Z,3.63
2023-05-20T19:06:17.756Z,3.47
2023-05-20T19:08:44.670Z,3.70
2023-05-20T19:11:11.697Z,3.97
2023-05-20T19:13:38.384Z,3.60
2023-05-20T19:16:05.378Z,3.77
2023-05-20T19:18:32.383Z,3.70
2023-05-20T19:20:59.150Z,3.90
2023-05-20T19:23:26.214Z,4.33
2023-05-20T19:25:58.038Z,4.00
2023-05-20T19:28:24.837Z,4.10
2023-05-20T19:30:51.696Z,4.10
2023-05-20T19:33:18.588Z,4.30
2023-05-20T19:35:45.393Z,4.07
2023-05-20T19:38:12.649Z,4.20
2023-05-20T19:40:39.459Z,4.27
2023-05-20T19:43:06.645Z,4.67
2023-05-20T19:45:33.924Z,4.73
2023-05-20T19:48:03.873Z,4.60
2023-05-20T19:50:30.906Z,5.10
2023-05-20T19:52:57.775Z,5.33
2023-05-20T19:55:24.611Z,5.53
2023-05-20T19:57:54.167Z,5.43
2023-05-20T20:00:21.740Z,5.70
2023-05-20T20:02:48.949Z,5.23
2023-05-20T20:05:15.989Z,5.83
2023-05-20T20:07:42.746Z,5.43
2023-05-20T20:10:10.674Z,4.83
2023-05-20T20:12:37.509Z,5.27
2023-05-20T20:15:04.646Z,4.97
2023-05-20T20:17:33.883Z,5.63
2023-05-20T20:20:01.121Z,5.37
2023-05-20T20:22:28.045Z,5.73
2023-05-20T20:24:54.941Z,5.73
2023-05-20T20:27:24.041Z,5.70
2023-05-20T20:29:51.496Z,6.03
2023-05-20T20:32:18.567Z,6.10
2023-05-20T20:34:46.228Z,5.60
2023-05-20T20:37:15.343Z,5.70
2023-05-20T20:39:45.520Z,5.80
2023-05-20T20:42:12.433Z,5.70
2023-05-20T20:44:42.828Z,6.00
2023-05-20T20:47:10.265Z,6.00
2023-05-20T20:49:37.107Z,6.03
2023-05-20T20:52:04.028Z,5.93
2023-05-20T20:54:32.947Z,5.57
2023-05-20T20:57:00.223Z,5.53
2023-05-20T20:59:27.120Z,6.03
2023-05-20T21:01:54.297Z,5.93
2023-05-20T21:04:21.219Z,5.77
2023-05-20T21:06:48.086Z,6.20
2023-05-20T21:09:15.350Z,5.67
2023-05-20T21:11:42.518Z,5.83
2023-05-20T21:14:10.810Z,5.87
2023-05-20T21:16:37.886Z,6.47
2023-05-20T21:19:05.062Z,6.40
2023-05-20T21:21:32.162Z,6.13
2023-05-20T21:23:59.192Z,6.40
2023-05-20T21:26:26.778Z,6.07
2023-05-20T21:28:53.605Z,6.47
2023-05-20T21:31:20.693Z,6.57
2023-05-20T21:33:47.501Z,6.20
2023-05-20T21:36:14.312Z,6.37
2023-05-20T21:38:41.173Z,6.50
2023-05-20T21:41:08.357Z,6.67
2023-05-20T21:43:36.161Z,6.40
2023-05-20T21:46:03.279Z,6.27
2023-05-20T21:48:30.111Z,6.30
2023-05-20T21:50:56.869Z,6.30
2023-05-20T21:53:23.743Z,6.50
2023-05-20T21:55:51.106Z,6.97
2023-05-20T21:58:18.061Z,6.33
2023-05-20T22:00:45.302Z,6.07
2023-05-20T22:03:13.172Z,6.40
2023-05-20T22:05:40.421Z,6.33
2023-05-20T22:08:07.856Z,6.37
2023-05-20T22:10:36.638Z,6.50
2023-05-20T22:13:03.710Z,6.50
2023-05-20T22:15:31.540Z,6.73
2023-05-20T22:17:58.841Z,6.70
2023-05-20T22:20:25.825Z,6.97
2023-05-20T22:22:52.672Z,6.77
2023-05-20T22:25:19.609Z,6.47
2023-05-20T22:27:46.410Z,6.37
2023-05-20T22:30:13.484Z,6.43
2023-05-20T22:32:40.667Z,6.37
2023-05-20T22:35:07.950Z,6.70
2023-05-20T22:37:34.851Z,6.30
2023-05-20T22:40:01.764Z,6.67
2023-05-20T22:42:28.535Z,7.13
2023-05-20T22:44:55.288Z,6.47
2023-05-20T22:47:22.172Z,6.27
2023-05-20T22:49:49.038Z,6.77
2023-05-20T22:52:15.802Z,6.63
2023-05-20T22:54:42.579Z,7.00
2023-05-20T22:57:09.405Z,6.77
2023-05-20T22:59:36.797Z,6.60
2023-05-20T23:02:04.178Z,6.93
2023-05-20T23:04:31.159Z,6.90
2023-05-20T23:07:00.342Z,6.83
2023-05-20T23:09:27.125Z,6.97
2023-05-20T23:11:53.916Z,7.30
2023-05-20T23:14:20.718Z,6.50
2023-05-20T23:16:47.718Z,6.83
2023-05-20T23:19:14.910Z,7.03
2023-05-20T23:21:41.801Z,6.97
2023-05-20T23:24:08.712Z,6.33
2023-05-20T23:26:37.821Z,7.03
2023-05-20T23:29:10.590Z,6.93
2023-05-20T23:31:37.330Z,6.67
2023-05-20T23:34:07.219Z,7.23
2023-05-20T23:36:37.470Z,7.27
2023-05-20T23:39:04.438Z,7.37
2023-05-20T23:41:31.218Z,7.07
2023-05-20T23:43:58.004Z,7.57
2023-05-20T23:46:24.805Z,7.13
2023-05-20T23:48:51.914Z,7.17
2023-05-20T23:51:18.764Z,6.93
2023-05-20T23:53:45.603Z,6.87
2023-05-20T23:56:12.348Z,7.13
2023-05-20T23:58:39.221Z,7.00
